Mr Farrel — WDF2273 — position and weather

sailwx.info

Track history (hours):
 
Tides and Currents Weather Stations Pressure Air Temp Water Temp Dewpoint Dewpoint Depression Visibility Wind Speed Wind Dir Waves Ship Positions

Mr Farrel

Owner: Crosby Marine Transportation LLC, Golden Meadow, LA. More information available from US FCC via Universal Licensing System and Coast Guard Vessel Documentation Center.

Last reported at 2018-Jun-23 06:41 UTC. Time now 2018-Jun-25 05:37 UTC.
Position N 29°43' W 095°15'.

; draft 3 m.

Type: Tug. MMSI: 367426830.

Date/timePositionNaut miles runAvg speedWind from/ knotsBaromVisibWave heightAir tempDewpointWater temp
2018-Jun-23 06:41N 29°43' W 095°15'0 0.0
2018-Jun-23 06:30N 29°43' W 095°15'0 0.0
2018-Jun-23 04:58N 29°43' W 095°15'0 0.0
2018-Jun-23 04:30N 29°43' W 095°15'8 0.5
2018-Jun-22 13:48N 29°45' W 095°06'1 2.6
2018-Jun-22 13:30N 29°46' W 095°06'1 1.6
2018-Jun-22 12:51N 29°47' W 095°06'0 0.0
2018-Jun-22 08:29N 29°47' W 095°06'0 0.0
2018-Jun-22 08:00N 29°47' W 095°06'0 0.0
2018-Jun-22 07:27N 29°47' W 095°06'0 0.0
2018-Jun-22 06:38N 29°47' W 095°06'0 0.0
2018-Jun-22 06:29N 29°47' W 095°06'0 0.0
2018-Jun-22 05:58N 29°47' W 095°06'0 0.0
2018-Jun-22 05:31N 29°47' W 095°06'0 0.0
2018-Jun-22 04:56N 29°47' W 095°06'0 0.0
2018-Jun-22 04:29N 29°47' W 095°06'0 0.0
2018-Jun-22 04:00N 29°47' W 095°06'0 0.0
2018-Jun-22 03:30N 29°47' W 095°06'0 0.0
2018-Jun-22 02:36N 29°47' W 095°06'0 0.0
2018-Jun-22 02:19N 29°47' W 095°06'0 0.0
2018-Jun-22 01:41N 29°47' W 095°06'0 0.0
2018-Jun-21 22:41N 29°47' W 095°06'0 0.0
2018-Jun-21 22:29N 29°47' W 095°06'0 0.0
2018-Jun-21 21:59N 29°47' W 095°06'0 0.0
2018-Jun-21 21:29N 29°47' W 095°06'0 0.0
2018-Jun-21 20:54N 29°47' W 095°06'0 0.0
2018-Jun-21 20:23N 29°47' W 095°06'0 0.0
2018-Jun-21 20:00N 29°47' W 095°06'0 0.0
2018-Jun-21 19:25N 29°47' W 095°06'0 0.0
2018-Jun-21 18:41N 29°47' W 095°06'0 0.0
2018-Jun-21 18:23N 29°47' W 095°06'0 0.0
2018-Jun-21 15:11N 29°47' W 095°06'0 0.0
2018-Jun-21 09:10N 29°47' W 095°06'0 0.0
2018-Jun-21 08:53N 29°47' W 095°06'0 0.0
2018-Jun-21 08:27N 29°47' W 095°06'0 0.0
2018-Jun-21 07:59N 29°47' W 095°06'0 0.0
2018-Jun-21 06:20N 29°47' W 095°06'0 0.0
2018-Jun-21 05:58N 29°47' W 095°06'0 0.0
2018-Jun-21 05:30N 29°47' W 095°06'0 0.0
2018-Jun-21 04:53N 29°47' W 095°06'0 0.0
2018-Jun-21 04:28N 29°47' W 095°06'0 0.0
2018-Jun-21 02:58N 29°47' W 095°06'0 0.0
2018-Jun-21 02:14N 29°47' W 095°06'0 0.0
2018-Jun-20 01:41N 29°47' W 095°06'  
2018-Jun-15 17:47N 29°42' W 095°00'2 6.2
2018-Jun-15 17:30N 29°41' W 094°59'3 6.3
2018-Jun-15 17:00N 29°38' W 094°58'18 6.9
2018-Jun-15 14:21N 29°22' W 094°47'2 5.6
2018-Jun-15 14:00N 29°24' W 094°45'19 5.2
2018-Jun-15 10:22N 29°34' W 094°27'2 5.1
2018-Jun-15 10:00N 29°34' W 094°25'2 4.0
2018-Jun-15 09:30N 29°36' W 094°23'0 0.7
2018-Jun-15 08:59N 29°36' W 094°23'2 4.7
2018-Jun-15 08:30N 29°37' W 094°21'3 5.4
2018-Jun-15 08:00N 29°38' W 094°18'3 5.4
2018-Jun-15 07:30N 29°39' W 094°15'3 5.4
2018-Jun-15 07:00N 29°41' W 094°12'3 5.1
2018-Jun-15 06:30N 29°41' W 094°09'3 5.1
2018-Jun-15 06:00N 29°43' W 094°07'3 5.1
2018-Jun-15 05:30N 29°45' W 094°05'3 5.0
2018-Jun-15 05:00N 29°46' W 094°03'3 5.0
2018-Jun-15 04:30N 29°48' W 094°00'2 4.8
2018-Jun-15 04:00N 29°49' W 093°58'4 7.7
2018-Jun-15 03:30N 29°52' W 093°56'2 4.6
2018-Jun-15 03:00N 29°54' W 093°54'3 5.3
2018-Jun-15 02:30N 29°56' W 093°52'3 5.3
2018-Jun-15 02:00N 29°59' W 093°53'3 6.7
2018-Jun-15 01:30N 29°60' W 093°56'0 0.3
2018-Jun-15 01:00N 29°60' W 093°57'0 0.0
2018-Jun-15 00:30N 29°60' W 093°57'0 0.0
2018-Jun-15 00:00N 29°60' W 093°57'0 0.0
2018-Jun-14 23:30N 29°60' W 093°57'0 0.0
2018-Jun-14 23:00N 29°60' W 093°57'0 0.0
2018-Jun-14 22:30N 29°60' W 093°57'0 0.0
2018-Jun-14 22:00N 29°60' W 093°57'0 0.0
2018-Jun-14 21:30N 29°60' W 093°57'0 0.0
2018-Jun-14 21:00N 29°60' W 093°57'0 0.0
2018-Jun-14 20:30N 29°60' W 093°57'0 0.7
2018-Jun-14 20:00N 29°60' W 093°56'3 5.8
2018-Jun-14 19:30N 29°59' W 093°53'1 3.0
2018-Jun-14 19:00N 29°58' W 093°52'0 0.0
2018-Jun-14 18:30N 29°58' W 093°52'0 0.0
2018-Jun-14 18:00N 29°58' W 093°52'0 0.0
2018-Jun-14 17:30N 29°58' W 093°52'0 0.0
2018-Jun-14 17:00N 29°58' W 093°52'0 0.0
2018-Jun-14 16:30N 29°58' W 093°52'0 0.0
2018-Jun-14 16:00N 29°58' W 093°52'0 0.0
2018-Jun-14 15:30N 29°58' W 093°52'0 0.0
2018-Jun-14 15:00N 29°58' W 093°52'0 0.0
2018-Jun-14 14:30N 29°58' W 093°52'0 0.0
2018-Jun-14 14:00N 29°58' W 093°52'0 0.0
2018-Jun-14 13:30N 29°58' W 093°52'2 4.4
2018-Jun-14 13:00N 29°59' W 093°54'2 4.8
2018-Jun-14 12:30N 29°60' W 093°57'0 0.0
2018-Jun-14 12:00N 29°60' W 093°57'0 0.0
2018-Jun-14 11:30N 29°60' W 093°57'0 0.0
2018-Jun-14 11:00N 29°60' W 093°57'0 0.0
2018-Jun-14 10:30N 29°60' W 093°57'0 0.0
2018-Jun-14 10:00N 29°60' W 093°57'0 0.0
2018-Jun-14 09:30N 29°60' W 093°57'0 0.0
2018-Jun-14 09:00N 29°60' W 093°57'0 0.0
2018-Jun-14 08:30N 29°60' W 093°57'0 0.0
2018-Jun-14 08:00N 29°60' W 093°57'1 2.1
2018-Jun-14 07:30N 29°59' W 093°55'3 5.6
2018-Jun-14 07:00N 29°59' W 093°52'2 4.1
2018-Jun-14 06:30N 29°57' W 093°52'2 5.1
2018-Jun-14 06:00N 29°55' W 093°53'2 4.3
2018-Jun-14 05:30N 29°53' W 093°55'2 4.0
2018-Jun-14 05:01N 29°51' W 093°56'2 3.8
2018-Jun-14 04:30N 29°50' W 093°57'2 4.0
2018-Jun-14 04:00N 29°49' W 093°59'3 6.5
2018-Jun-14 03:30N 29°47' W 094°02'3 6.5
2018-Jun-14 03:00N 29°45' W 094°05'3 6.4
2018-Jun-14 02:30N 29°43' W 094°08'3 6.1
2018-Jun-14 02:00N 29°41' W 094°11'3 6.0
2018-Jun-14 01:30N 29°40' W 094°14'3 5.9
2018-Jun-14 01:00N 29°39' W 094°17'3 5.7
2018-Jun-14 00:29N 29°37' W 094°20'3 5.6
2018-Jun-13 23:59N 29°36' W 094°23'2 4.1
2018-Jun-13 23:29N 29°35' W 094°25'3 5.0
2018-Jun-13 22:55N 29°33' W 094°28'9 5.3
2018-Jun-13 21:10N 29°29' W 094°37'1 5.8
2018-Jun-13 20:55N 29°28' W 094°39'8 5.7
2018-Jun-13 19:29N 29°23' W 094°46'2 4.5
2018-Jun-13 19:00N 29°23' W 094°48'4 6.9
2018-Jun-13 18:29N 29°26' W 094°50'3 6.8
2018-Jun-13 18:00N 29°29' W 094°52'4 6.6
2018-Jun-13 17:28N 29°32' W 094°54'3 6.4
2018-Jun-13 17:00N 29°34' W 094°56'3 6.4
2018-Jun-13 16:29N 29°37' W 094°58'3 6.3
2018-Jun-13 15:58N 29°40' W 094°59'  
Track history (hours):
 
Tides and Currents Weather Stations Pressure Air Temp Water Temp Dewpoint Dewpoint Depression Visibility Wind Speed Wind Dir Waves Ship Positions

Mr Farrel

Owner: Crosby Marine Transportation LLC, Golden Meadow, LA. More information available from US FCC via Universal Licensing System and Coast Guard Vessel Documentation Center.

Last reported at 2018-Jun-23 06:41 UTC. Time now 2018-Jun-25 05:37 UTC.
Position N 29°43' W 095°15'.

; draft 3 m.

Type: Tug. MMSI: 367426830.

Date/timePositionNaut miles runAvg speedWind from/ knotsBaromVisibWave heightAir tempDewpointWater temp
2018-Jun-23 06:41N 29°43' W 095°15'0 0.0
2018-Jun-23 06:30N 29°43' W 095°15'0 0.0
2018-Jun-23 04:58N 29°43' W 095°15'0 0.0
2018-Jun-23 04:30N 29°43' W 095°15'8 0.5
2018-Jun-22 13:48N 29°45' W 095°06'1 2.6
2018-Jun-22 13:30N 29°46' W 095°06'1 1.6
2018-Jun-22 12:51N 29°47' W 095°06'0 0.0
2018-Jun-22 08:29N 29°47' W 095°06'0 0.0
2018-Jun-22 08:00N 29°47' W 095°06'0 0.0
2018-Jun-22 07:27N 29°47' W 095°06'0 0.0
2018-Jun-22 06:38N 29°47' W 095°06'0 0.0
2018-Jun-22 06:29N 29°47' W 095°06'0 0.0
2018-Jun-22 05:58N 29°47' W 095°06'0 0.0
2018-Jun-22 05:31N 29°47' W 095°06'0 0.0
2018-Jun-22 04:56N 29°47' W 095°06'0 0.0
2018-Jun-22 04:29N 29°47' W 095°06'0 0.0
2018-Jun-22 04:00N 29°47' W 095°06'0 0.0
2018-Jun-22 03:30N 29°47' W 095°06'0 0.0
2018-Jun-22 02:36N 29°47' W 095°06'0 0.0
2018-Jun-22 02:19N 29°47' W 095°06'0 0.0
2018-Jun-22 01:41N 29°47' W 095°06'0 0.0
2018-Jun-21 22:41N 29°47' W 095°06'0 0.0
2018-Jun-21 22:29N 29°47' W 095°06'0 0.0
2018-Jun-21 21:59N 29°47' W 095°06'0 0.0
2018-Jun-21 21:29N 29°47' W 095°06'0 0.0
2018-Jun-21 20:54N 29°47' W 095°06'0 0.0
2018-Jun-21 20:23N 29°47' W 095°06'0 0.0
2018-Jun-21 20:00N 29°47' W 095°06'0 0.0
2018-Jun-21 19:25N 29°47' W 095°06'0 0.0
2018-Jun-21 18:41N 29°47' W 095°06'0 0.0
2018-Jun-21 18:23N 29°47' W 095°06'0 0.0
2018-Jun-21 15:11N 29°47' W 095°06'0 0.0
2018-Jun-21 09:10N 29°47' W 095°06'0 0.0
2018-Jun-21 08:53N 29°47' W 095°06'0 0.0
2018-Jun-21 08:27N 29°47' W 095°06'0 0.0
2018-Jun-21 07:59N 29°47' W 095°06'0 0.0
2018-Jun-21 06:20N 29°47' W 095°06'0 0.0
2018-Jun-21 05:58N 29°47' W 095°06'0 0.0
2018-Jun-21 05:30N 29°47' W 095°06'0 0.0
2018-Jun-21 04:53N 29°47' W 095°06'0 0.0
2018-Jun-21 04:28N 29°47' W 095°06'0 0.0
2018-Jun-21 02:58N 29°47' W 095°06'0 0.0
2018-Jun-21 02:14N 29°47' W 095°06'0 0.0
2018-Jun-20 01:41N 29°47' W 095°06'  
2018-Jun-15 17:47N 29°42' W 095°00'2 6.2
2018-Jun-15 17:30N 29°41' W 094°59'3 6.3
2018-Jun-15 17:00N 29°38' W 094°58'18 6.9
2018-Jun-15 14:21N 29°22' W 094°47'2 5.6
2018-Jun-15 14:00N 29°24' W 094°45'19 5.2
2018-Jun-15 10:22N 29°34' W 094°27'2 5.1
2018-Jun-15 10:00N 29°34' W 094°25'2 4.0
2018-Jun-15 09:30N 29°36' W 094°23'0 0.7
2018-Jun-15 08:59N 29°36' W 094°23'2 4.7
2018-Jun-15 08:30N 29°37' W 094°21'3 5.4
2018-Jun-15 08:00N 29°38' W 094°18'3 5.4
2018-Jun-15 07:30N 29°39' W 094°15'3 5.4
2018-Jun-15 07:00N 29°41' W 094°12'3 5.1
2018-Jun-15 06:30N 29°41' W 094°09'3 5.1
2018-Jun-15 06:00N 29°43' W 094°07'3 5.1
2018-Jun-15 05:30N 29°45' W 094°05'3 5.0
2018-Jun-15 05:00N 29°46' W 094°03'3 5.0
2018-Jun-15 04:30N 29°48' W 094°00'2 4.8
2018-Jun-15 04:00N 29°49' W 093°58'4 7.7
2018-Jun-15 03:30N 29°52' W 093°56'2 4.6
2018-Jun-15 03:00N 29°54' W 093°54'3 5.3
2018-Jun-15 02:30N 29°56' W 093°52'3 5.3
2018-Jun-15 02:00N 29°59' W 093°53'3 6.7
2018-Jun-15 01:30N 29°60' W 093°56'0 0.3
2018-Jun-15 01:00N 29°60' W 093°57'0 0.0
2018-Jun-15 00:30N 29°60' W 093°57'0 0.0
2018-Jun-15 00:00N 29°60' W 093°57'0 0.0
2018-Jun-14 23:30N 29°60' W 093°57'0 0.0
2018-Jun-14 23:00N 29°60' W 093°57'0 0.0
2018-Jun-14 22:30N 29°60' W 093°57'0 0.0
2018-Jun-14 22:00N 29°60' W 093°57'0 0.0
2018-Jun-14 21:30N 29°60' W 093°57'0 0.0
2018-Jun-14 21:00N 29°60' W 093°57'0 0.0
2018-Jun-14 20:30N 29°60' W 093°57'0 0.7
2018-Jun-14 20:00N 29°60' W 093°56'3 5.8
2018-Jun-14 19:30N 29°59' W 093°53'1 3.0
2018-Jun-14 19:00N 29°58' W 093°52'0 0.0
2018-Jun-14 18:30N 29°58' W 093°52'0 0.0
2018-Jun-14 18:00N 29°58' W 093°52'0 0.0
2018-Jun-14 17:30N 29°58' W 093°52'0 0.0
2018-Jun-14 17:00N 29°58' W 093°52'0 0.0
2018-Jun-14 16:30N 29°58' W 093°52'0 0.0
2018-Jun-14 16:00N 29°58' W 093°52'0 0.0
2018-Jun-14 15:30N 29°58' W 093°52'0 0.0
2018-Jun-14 15:00N 29°58' W 093°52'0 0.0
2018-Jun-14 14:30N 29°58' W 093°52'0 0.0
2018-Jun-14 14:00N 29°58' W 093°52'0 0.0
2018-Jun-14 13:30N 29°58' W 093°52'2 4.4
2018-Jun-14 13:00N 29°59' W 093°54'2 4.8
2018-Jun-14 12:30N 29°60' W 093°57'0 0.0
2018-Jun-14 12:00N 29°60' W 093°57'0 0.0
2018-Jun-14 11:30N 29°60' W 093°57'0 0.0
2018-Jun-14 11:00N 29°60' W 093°57'0 0.0
2018-Jun-14 10:30N 29°60' W 093°57'0 0.0
2018-Jun-14 10:00N 29°60' W 093°57'0 0.0
2018-Jun-14 09:30N 29°60' W 093°57'0 0.0
2018-Jun-14 09:00N 29°60' W 093°57'0 0.0
2018-Jun-14 08:30N 29°60' W 093°57'0 0.0
2018-Jun-14 08:00N 29°60' W 093°57'1 2.1
2018-Jun-14 07:30N 29°59' W 093°55'3 5.6
2018-Jun-14 07:00N 29°59' W 093°52'2 4.1
2018-Jun-14 06:30N 29°57' W 093°52'2 5.1
2018-Jun-14 06:00N 29°55' W 093°53'2 4.3
2018-Jun-14 05:30N 29°53' W 093°55'2 4.0
2018-Jun-14 05:01N 29°51' W 093°56'2 3.8
2018-Jun-14 04:30N 29°50' W 093°57'2 4.0
2018-Jun-14 04:00N 29°49' W 093°59'3 6.5
2018-Jun-14 03:30N 29°47' W 094°02'3 6.5
2018-Jun-14 03:00N 29°45' W 094°05'3 6.4
2018-Jun-14 02:30N 29°43' W 094°08'3 6.1
2018-Jun-14 02:00N 29°41' W 094°11'3 6.0
2018-Jun-14 01:30N 29°40' W 094°14'3 5.9
2018-Jun-14 01:00N 29°39' W 094°17'3 5.7
2018-Jun-14 00:29N 29°37' W 094°20'3 5.6
2018-Jun-13 23:59N 29°36' W 094°23'2 4.1
2018-Jun-13 23:29N 29°35' W 094°25'3 5.0
2018-Jun-13 22:55N 29°33' W 094°28'9 5.3
2018-Jun-13 21:10N 29°29' W 094°37'1 5.8
2018-Jun-13 20:55N 29°28' W 094°39'8 5.7
2018-Jun-13 19:29N 29°23' W 094°46'2 4.5
2018-Jun-13 19:00N 29°23' W 094°48'4 6.9
2018-Jun-13 18:29N 29°26' W 094°50'3 6.8
2018-Jun-13 18:00N 29°29' W 094°52'4 6.6
2018-Jun-13 17:28N 29°32' W 094°54'3 6.4
2018-Jun-13 17:00N 29°34' W 094°56'3 6.4
2018-Jun-13 16:29N 29°37' W 094°58'3 6.3
2018-Jun-13 15:58N 29°40' W 094°59'  

Dump ship's entire track history